createdAt,value
2022-12-15T00:02:36.471Z,99896.72
2022-12-15T00:05:22.462Z,99889.88
2022-12-15T00:08:09.411Z,99896.72
2022-12-15T00:10:54.785Z,99889.88
2022-12-15T00:13:40.509Z,99894.59
2022-12-15T00:16:27.033Z,99892.03
2022-12-15T00:19:12.348Z,99896.44
2022-12-15T00:21:57.834Z,99897.34
2022-12-15T00:24:44.819Z,99905.06
2022-12-15T00:27:35.499Z,99902.50
2022-12-15T00:30:21.085Z,99899.00
2022-12-15T00:33:06.746Z,99901.81
2022-12-15T00:35:51.984Z,99901.00
2022-12-15T00:38:37.476Z,99900.75
2022-12-15T00:41:07.634Z,99898.16
2022-12-15T00:43:37.436Z,99902.50
2022-12-15T00:46:22.971Z,99887.03
2022-12-15T00:48:51.143Z,99899.75
2022-12-15T00:51:19.053Z,99892.94
2022-12-15T00:54:05.009Z,99890.44
2022-12-15T00:56:52.106Z,99891.19
2022-12-15T00:59:37.516Z,99888.69
2022-12-15T01:02:23.389Z,99886.13
2022-12-15T01:05:09.008Z,99881.72
2022-12-15T01:07:54.493Z,99867.91
2022-12-15T01:10:40.016Z,99873.06
2022-12-15T01:13:31.567Z,99875.66
2022-12-15T01:16:17.269Z,99866.25
2022-12-15T01:19:02.690Z,99867.91
2022-12-15T01:21:32.906Z,99878.03
2022-12-15T01:24:00.849Z,99869.41
2022-12-15T01:26:28.763Z,99869.41
2022-12-15T01:28:58.157Z,99881.38
2022-12-15T01:31:26.136Z,99878.88
2022-12-15T01:33:55.376Z,99881.47
2022-12-15T01:36:23.306Z,99887.38
2022-12-15T01:38:54.285Z,99876.16
2022-12-15T01:41:22.493Z,99881.25
2022-12-15T01:43:50.416Z,99877.78
2022-12-15T01:46:21.481Z,99883.75
2022-12-15T01:48:55.165Z,99871.91
2022-12-15T01:51:29.861Z,99871.06
2022-12-15T01:54:04.878Z,99866.75
2022-12-15T01:56:37.783Z,99859.91
2022-12-15T01:59:09.013Z,99858.09
2022-12-15T02:01:38.684Z,99850.31
2022-12-15T02:04:06.824Z,99849.41
2022-12-15T02:06:34.883Z,99846.75
2022-12-15T02:09:03.592Z,99851.97
2022-12-15T02:11:52.247Z,99844.25
2022-12-15T02:14:29.440Z,99852.09
2022-12-15T02:17:08.170Z,99858.06
2022-12-15T02:19:51.721Z,99853.66
2022-12-15T02:22:34.265Z,99834.84
2022-12-15T02:25:32.981Z,99849.31
2022-12-15T02:28:05.692Z,99835.69
2022-12-15T02:30:46.139Z,99834.22
2022-12-15T02:33:27.427Z,99835.69
2022-12-15T02:35:59.079Z,99826.19
2022-12-15T02:38:32.442Z,99816.63
2022-12-15T02:41:01.801Z,99810.56
2022-12-15T02:43:31.413Z,99815.72
2022-12-15T02:46:15.650Z,99815.53
2022-12-15T02:48:53.879Z,99825.78
2022-12-15T02:51:35.652Z,99825.03
2022-12-15T02:54:36.349Z,99830.09
2022-12-15T02:57:14.302Z,99837.00
2022-12-15T02:59:47.478Z,99836.09
2022-12-15T03:02:17.044Z,99844.66
2022-12-15T03:04:45.652Z,99837.91
2022-12-15T03:07:15.323Z,99843.00
2022-12-15T03:09:43.443Z,99838.75
2022-12-15T03:12:11.663Z,99848.91
2022-12-15T03:14:39.587Z,99848.00
2022-12-15T03:17:07.665Z,99843.00
2022-12-15T03:19:36.980Z,99846.25
2022-12-15T03:22:05.436Z,99851.47
2022-12-15T03:24:33.363Z,99861.22
2022-12-15T03:27:01.317Z,99863.25
2022-12-15T03:29:29.271Z,99850.63
2022-12-15T03:31:57.293Z,99842.91
2022-12-15T03:34:25.253Z,99848.69
2022-12-15T03:36:54.761Z,99852.59
2022-12-15T03:39:22.689Z,99844.38
2022-12-15T03:41:50.609Z,99851.28
2022-12-15T03:44:18.527Z,99869.22
2022-12-15T03:46:46.436Z,99862.88
2022-12-15T03:49:14.354Z,99859.16
2022-12-15T03:51:42.272Z,99861.34
2022-12-15T03:54:13.118Z,99866.34
2022-12-15T03:56:41.079Z,99875.56
2022-12-15T03:59:09.019Z,99856.47
2022-12-15T04:01:37.982Z,99862.69
2022-12-15T04:04:06.415Z,99864.28
2022-12-15T04:06:34.374Z,99866.88
2022-12-15T04:09:02.279Z,99863.81
2022-12-15T04:11:31.581Z,99865.41
2022-12-15T04:13:59.502Z,99861.00
2022-12-15T04:16:27.456Z,99828.63
2022-12-15T04:19:09.253Z,99861.66
2022-12-15T04:21:37.169Z,99869.31
2022-12-15T04:24:23.192Z,99863.25
2022-12-15T04:27:09.678Z,99864.16
2022-12-15T04:29:54.800Z,99872.66
2022-12-15T04:32:40.335Z,99881.31
2022-12-15T04:35:26.335Z,99867.50
2022-12-15T04:38:12.340Z,99871.75
2022-12-15T04:40:57.704Z,99876.16
2022-12-15T04:43:44.525Z,99872.81
2022-12-15T04:46:30.276Z,99877.25
2022-12-15T04:49:15.775Z,99883.13
2022-12-15T04:52:01.245Z,99890.84
2022-12-15T04:54:46.844Z,99900.81
2022-12-15T04:57:32.266Z,99905.75
2022-12-15T05:00:19.043Z,99900.22
2022-12-15T05:03:04.285Z,99900.59
2022-12-15T05:05:49.741Z,99900.53
2022-12-15T05:08:35.109Z,99917.84
2022-12-15T05:11:20.430Z,99913.59
2022-12-15T05:14:05.829Z,99886.13
2022-12-15T05:16:52.636Z,99931.31
2022-12-15T05:19:38.072Z,99935.50
2022-12-15T05:22:23.476Z,99946.63
2022-12-15T05:25:08.910Z,99958.34
2022-12-15T05:27:54.437Z,99966.13
2022-12-15T05:30:39.940Z,99976.13
2022-12-15T05:33:09.265Z,99975.50
2022-12-15T05:35:37.206Z,99989.56
2022-12-15T05:38:06.622Z,100004.94
2022-12-15T05:40:34.625Z,100014.59
2022-12-15T05:43:02.591Z,100015.78
2022-12-15T05:45:30.602Z,100017.88
2022-12-15T05:47:58.537Z,100024.34
2022-12-15T05:50:27.900Z,100026.75
2022-12-15T05:52:55.819Z,100029.22
2022-12-15T05:55:23.732Z,100037.19
2022-12-15T05:57:55.147Z,100047.47
2022-12-15T06:00:23.645Z,100047.03
2022-12-15T06:02:51.644Z,100053.47
2022-12-15T06:05:19.614Z,100058.75
2022-12-15T06:07:48.925Z,100058.22
2022-12-15T06:10:16.970Z,100062.88
2022-12-15T06:12:44.957Z,100063.47
2022-12-15T06:15:13.047Z,100070.66
2022-12-15T06:17:41.019Z,100066.63
2022-12-15T06:20:09.530Z,100080.06
2022-12-15T06:22:37.461Z,100073.56
2022-12-15T06:25:07.886Z,100091.28
2022-12-15T06:27:36.981Z,100093.63
2022-12-15T06:30:05.581Z,100108.03
2022-12-15T06:32:36.383Z,100118.38
2022-12-15T06:35:04.326Z,100119.13
2022-12-15T06:37:32.228Z,100122.53
2022-12-15T06:40:00.903Z,100134.38
2022-12-15T06:42:30.212Z,100143.00
2022-12-15T06:44:58.131Z,100144.00
2022-12-15T06:47:26.053Z,100142.25
2022-12-15T06:49:53.957Z,100147.78
2022-12-15T06:52:21.865Z,100157.81
2022-12-15T06:54:49.821Z,100159.63
2022-12-15T06:57:17.753Z,100159.56
2022-12-15T06:59:47.097Z,100154.63
2022-12-15T07:02:19.145Z,100172.88
2022-12-15T07:04:49.068Z,100169.53
2022-12-15T07:07:17.035Z,100169.59
2022-12-15T07:09:44.950Z,100176.44
2022-12-15T07:12:13.820Z,100182.22
2022-12-15T07:14:41.725Z,100191.97
2022-12-15T07:17:11.590Z,100194.25
2022-12-15T07:19:39.537Z,100193.91
2022-12-15T07:22:07.433Z,100192.34
2022-12-15T07:24:35.399Z,100189.78
2022-12-15T07:27:03.308Z,100199.94
2022-12-15T07:29:31.441Z,100222.50
2022-12-15T07:32:00.941Z,100221.41
2022-12-15T07:34:30.399Z,100216.84
2022-12-15T07:36:58.311Z,100227.84
2022-12-15T07:39:27.439Z,100233.88
2022-12-15T07:41:55.350Z,100239.44
2022-12-15T07:44:23.305Z,100238.25
2022-12-15T07:46:51.261Z,100241.97
2022-12-15T07:49:20.629Z,100247.22
2022-12-15T07:51:49.937Z,100242.75
2022-12-15T07:54:18.049Z,100250.59
2022-12-15T07:56:50.353Z,100254.72
2022-12-15T07:59:18.733Z,100253.81
2022-12-15T08:01:46.944Z,100256.19
2022-12-15T08:04:15.101Z,100266.47
2022-12-15T08:06:43.007Z,100271.41
2022-12-15T08:09:12.728Z,100259.50
2022-12-15T08:11:40.628Z,100272.94
2022-12-15T08:14:15.088Z,100270.19
2022-12-15T08:16:45.432Z,100271.00
2022-12-15T08:19:15.353Z,100271.69
2022-12-15T08:21:45.553Z,100264.44
2022-12-15T08:24:15.748Z,100271.03
2022-12-15T08:26:50.251Z,100280.63
2022-12-15T08:32:07.622Z,100288.63
2022-12-15T08:34:35.945Z,100288.88
2022-12-15T08:37:03.940Z,100297.59
2022-12-15T08:39:33.310Z,100296.81
2022-12-15T08:42:01.396Z,100299.50
2022-12-15T08:44:29.332Z,100297.72
2022-12-15T08:46:57.284Z,100288.16
2022-12-15T08:49:25.861Z,100278.69
2022-12-15T08:51:53.753Z,100285.63
2022-12-15T08:54:21.916Z,100281.91
2022-12-15T08:56:51.357Z,100285.00
2022-12-15T08:59:20.059Z,100284.78
2022-12-15T09:01:48.395Z,100280.31
2022-12-15T09:04:16.706Z,100286.75
2022-12-15T09:06:50.450Z,100287.50
2022-12-15T09:09:18.988Z,100290.97
2022-12-15T09:11:46.947Z,100296.47
2022-12-15T09:14:16.369Z,100288.97
2022-12-15T09:16:44.410Z,100288.25
2022-12-15T09:19:12.508Z,100287.88
2022-12-15T09:21:43.078Z,100291.63
2022-12-15T09:24:22.165Z,100302.56
2022-12-15T09:26:54.252Z,100310.94
2022-12-15T09:29:23.541Z,100314.03
2022-12-15T09:31:51.542Z,100323.09
2022-12-15T09:34:19.457Z,100320.22
2022-12-15T09:36:47.450Z,100304.78
2022-12-15T09:39:17.019Z,100327.41
2022-12-15T09:41:52.854Z,100331.03
2022-12-15T09:44:25.169Z,100322.91
2022-12-15T09:47:05.835Z,100326.00
2022-12-15T09:49:49.612Z,100333.34
2022-12-15T09:52:20.493Z,100329.03
2022-12-15T09:54:48.493Z,100332.44
2022-12-15T09:57:26.470Z,100329.34
2022-12-15T10:00:10.145Z,100314.81
2022-12-15T10:02:56.853Z,100335.66
2022-12-15T10:06:06.883Z,100339.25
2022-12-15T10:08:30.441Z,100339.91
2022-12-15T10:11:01.548Z,100335.50
2022-12-15T10:13:39.341Z,100329.97
2022-12-15T10:16:19.919Z,100336.69
2022-12-15T10:19:01.436Z,100330.63
2022-12-15T10:21:33.212Z,100335.78
2022-12-15T10:24:31.575Z,100333.78
2022-12-15T10:27:23.829Z,100339.00
2022-12-15T10:30:01.526Z,100337.97
2022-12-15T10:32:43.844Z,100343.25
2022-12-15T10:35:17.144Z,100337.59
2022-12-15T10:37:45.093Z,100340.94
2022-12-15T10:40:18.849Z,100342.00
2022-12-15T10:42:49.437Z,100333.28
2022-12-15T10:45:36.779Z,100326.66
2022-12-15T10:48:07.149Z,100346.28
2022-12-15T10:50:36.135Z,100331.25
2022-12-15T10:53:09.746Z,100341.31
2022-12-15T10:55:39.856Z,100338.75
2022-12-15T10:58:18.851Z,100325.03
2022-12-15T11:00:50.967Z,100337.59
2022-12-15T11:03:25.120Z,100328.97
2022-12-15T11:05:54.466Z,100333.09
2022-12-15T11:08:23.804Z,100332.94
2022-12-15T11:11:11.140Z,100336.63
2022-12-15T11:13:39.737Z,100338.53
2022-12-15T11:16:25.859Z,100346.25
2022-12-15T11:19:03.669Z,100352.91
2022-12-15T11:21:37.034Z,100353.41
2022-12-15T11:24:11.804Z,100349.47
2022-12-15T11:26:50.083Z,100351.97
2022-12-15T11:29:34.886Z,100359.91
2022-12-15T11:32:07.043Z,100353.66
2022-12-15T11:34:39.543Z,100362.28
2022-12-15T11:37:39.424Z,100362.72
2022-12-15T11:40:32.144Z,100362.63
2022-12-15T11:43:25.226Z,100345.16
2022-12-15T11:46:05.624Z,100364.34
2022-12-15T11:48:40.547Z,100366.50
2022-12-15T11:51:15.609Z,100367.81
2022-12-15T11:54:03.704Z,100374.16
2022-12-15T11:56:36.695Z,100369.84
2022-12-15T11:59:39.377Z,100376.53
2022-12-15T12:02:38.062Z,100380.84
2022-12-15T12:05:27.726Z,100372.38
2022-12-15T12:08:05.343Z,100380.47
2022-12-15T12:10:42.650Z,100371.53
2022-12-15T12:13:23.399Z,100382.59
2022-12-15T12:15:58.886Z,100388.09
2022-12-15T12:18:32.342Z,100388.50
2022-12-15T12:21:07.235Z,100392.16
2022-12-15T12:23:42.640Z,100386.25
2022-12-15T12:26:18.123Z,100384.97
2022-12-15T12:28:50.210Z,100387.94
2022-12-15T12:31:28.143Z,100392.97
2022-12-15T12:34:03.592Z,100397.78
2022-12-15T12:36:31.776Z,100401.72
2022-12-15T12:39:01.525Z,100399.47
2022-12-15T12:41:37.998Z,100408.28
2022-12-15T12:44:14.683Z,100408.28
2022-12-15T12:46:45.016Z,100407.56
2022-12-15T12:49:26.183Z,100411.34
2022-12-15T12:51:56.615Z,100412.78
2022-12-15T12:54:45.042Z,100417.81
2022-12-15T12:57:33.934Z,100425.22
2022-12-15T13:00:03.513Z,100429.03
2022-12-15T13:02:50.553Z,100420.53
2022-12-15T13:05:31.551Z,100434.50
2022-12-15T13:08:27.746Z,100440.00
2022-12-15T13:10:57.424Z,100445.16
2022-12-15T13:13:51.065Z,100446.44
2022-12-15T13:16:24.015Z,100447.88
2022-12-15T13:19:02.112Z,100457.66
2022-12-15T13:21:55.142Z,100460.28
2022-12-15T13:24:37.556Z,100458.28
2022-12-15T13:27:15.373Z,100467.31
2022-12-15T13:30:00.673Z,100467.19
2022-12-15T13:32:32.480Z,100471.97
2022-12-15T13:35:17.832Z,100465.00
2022-12-15T13:37:50.585Z,100478.47
2022-12-15T13:40:51.209Z,100477.84
2022-12-15T13:43:42.288Z,100476.69
2022-12-15T13:46:17.528Z,100483.38
2022-12-15T13:48:49.373Z,100476.63
2022-12-15T13:51:30.196Z,100489.22
2022-12-15T13:54:03.131Z,100483.00
2022-12-15T13:56:46.267Z,100489.50
2022-12-15T13:59:23.771Z,100486.84
2022-12-15T14:01:53.725Z,100470.72
2022-12-15T14:04:22.800Z,100478.41
2022-12-15T14:06:54.128Z,100482.47
2022-12-15T14:09:26.609Z,100491.31
2022-12-15T14:11:54.948Z,100480.28
2022-12-15T14:14:30.244Z,100486.88
2022-12-15T14:17:01.205Z,100507.38
2022-12-15T14:19:38.732Z,100513.22
2022-12-15T14:22:27.021Z,100514.97
2022-12-15T14:25:01.420Z,100506.44
2022-12-15T14:27:31.421Z,100520.97
2022-12-15T14:30:29.547Z,100530.47
2022-12-15T14:33:02.901Z,100548.75
2022-12-15T14:35:34.868Z,100548.78
2022-12-15T14:38:07.553Z,100555.53
2022-12-15T14:40:37.255Z,100541.06
2022-12-15T14:43:06.050Z,100536.09
2022-12-15T14:45:35.484Z,100541.94
2022-12-15T14:50:59.785Z,100545.41
2022-12-15T14:53:32.817Z,100546.56
2022-12-15T14:56:14.237Z,100545.88
2022-12-15T14:58:42.678Z,100552.88
2022-12-15T15:01:35.604Z,100565.53
2022-12-15T15:04:05.306Z,100572.84
2022-12-15T15:06:37.375Z,100569.38
2022-12-15T15:09:17.833Z,100574.00
2022-12-15T15:11:46.157Z,100562.69
2022-12-15T15:14:17.864Z,100575.94
2022-12-15T15:17:06.189Z,100583.63
2022-12-15T15:19:39.598Z,100581.56
2022-12-15T15:22:31.293Z,100585.75
2022-12-15T15:24:59.188Z,100583.84
2022-12-15T15:27:33.872Z,100569.19
2022-12-15T15:30:18.553Z,100563.28
2022-12-15T15:32:55.069Z,100524.53
2022-12-15T15:35:24.558Z,100579.31
2022-12-15T15:37:53.634Z,100566.28
2022-12-15T15:40:21.583Z,100563.28
2022-12-15T15:42:49.473Z,100561.81
2022-12-15T15:45:17.469Z,100566.78
2022-12-15T15:47:49.543Z,100551.75
2022-12-15T15:50:26.740Z,100563.38
2022-12-15T15:52:54.732Z,100568.63
2022-12-15T15:55:28.229Z,100568.63
2022-12-15T15:57:56.371Z,100562.69
2022-12-15T16:00:26.162Z,100561.81
2022-12-15T16:02:54.692Z,100571.88
2022-12-15T16:05:24.161Z,100573.41
2022-12-15T16:07:52.119Z,100575.56
2022-12-15T16:10:21.619Z,100583.28
2022-12-15T16:12:52.024Z,100582.50
2022-12-15T16:15:22.234Z,100585.28
2022-12-15T16:17:50.586Z,100588.78
2022-12-15T16:20:20.577Z,100580.13
2022-12-15T16:22:55.819Z,100593.16
2022-12-15T16:25:34.684Z,100589.72
2022-12-15T16:28:14.316Z,100598.19
2022-12-15T16:30:43.258Z,100607.50
2022-12-15T16:33:11.938Z,100612.75
2022-12-15T16:35:41.632Z,100607.72
2022-12-15T16:38:17.241Z,100622.00
2022-12-15T16:40:45.184Z,100619.97
2022-12-15T16:43:17.073Z,100623.31
2022-12-15T16:45:47.327Z,100636.19
2022-12-15T16:48:15.903Z,100636.88
2022-12-15T16:50:45.909Z,100642.03
2022-12-15T16:53:18.431Z,100640.34
2022-12-15T16:55:47.860Z,100650.59
2022-12-15T16:58:18.022Z,100644.66
2022-12-15T17:00:46.400Z,100645.75
2022-12-15T17:03:15.400Z,100650.91
2022-12-15T17:05:45.038Z,100653.28
2022-12-15T17:08:20.148Z,100659.34
2022-12-15T17:10:48.980Z,100659.41
2022-12-15T17:13:36.561Z,100656.41
2022-12-15T17:16:07.382Z,100651.19
2022-12-15T17:18:35.749Z,100654.50
2022-12-15T17:21:07.872Z,100657.88
2022-12-15T17:23:37.660Z,100656.41
2022-12-15T17:26:28.753Z,100650.28
2022-12-15T17:28:54.745Z,100653.75
2022-12-15T17:31:25.383Z,100656.13
2022-12-15T17:33:55.656Z,100664.13
2022-12-15T17:36:25.636Z,100670.97
2022-12-15T17:38:58.116Z,100672.53
2022-12-15T17:41:57.929Z,100669.13
2022-12-15T17:44:32.878Z,100667.34
2022-12-15T17:47:02.149Z,100673.38
2022-12-15T17:49:35.428Z,100669.19
2022-12-15T17:52:06.682Z,100663.13
2022-12-15T17:54:36.034Z,100678.59
2022-12-15T17:57:04.035Z,100677.69
2022-12-15T17:59:32.344Z,100671.88
2022-12-15T18:02:00.432Z,100686.28
2022-12-15T18:04:28.441Z,100682.06
2022-12-15T18:07:01.505Z,100681.13
2022-12-15T18:09:30.252Z,100669.22
2022-12-15T18:11:59.592Z,100663.13
2022-12-15T18:14:29.248Z,100653.19
2022-12-15T18:16:57.191Z,100658.44
2022-12-15T18:19:27.987Z,100634.16
2022-12-15T18:21:59.732Z,100652.63
2022-12-15T18:24:28.142Z,100648.38
2022-12-15T18:26:56.056Z,100650.06
2022-12-15T18:29:25.531Z,100656.22
2022-12-15T18:31:54.167Z,100661.44
2022-12-15T18:34:23.388Z,100653.66
2022-12-15T18:36:51.667Z,100660.59
2022-12-15T18:39:20.903Z,100664.13
2022-12-15T18:41:49.584Z,100661.69
2022-12-15T18:44:23.235Z,100675.41
2022-12-15T18:46:52.610Z,100678.03
2022-12-15T18:49:23.627Z,100692.41
2022-12-15T18:51:51.860Z,100701.13
2022-12-15T18:54:22.273Z,100695.03
2022-12-15T18:56:50.667Z,100681.41
2022-12-15T18:59:20.278Z,100688.38
2022-12-15T19:01:50.012Z,100697.19
2022-12-15T19:04:19.446Z,100700.78
2022-12-15T19:06:47.503Z,100696.50
2022-12-15T19:09:18.405Z,100693.59
2022-12-15T19:12:17.743Z,100706.44
2022-12-15T19:14:47.169Z,100697.97
2022-12-15T19:17:34.646Z,100707.50
2022-12-15T19:20:22.913Z,100713.41
2022-12-15T19:22:51.284Z,100708.44
2022-12-15T19:25:25.735Z,100714.50
2022-12-15T19:27:58.759Z,100733.31
2022-12-15T19:30:29.281Z,100740.25
2022-12-15T19:32:57.814Z,100730.81
2022-12-15T19:35:29.251Z,100733.31
2022-12-15T19:37:59.385Z,100720.59
2022-12-15T19:40:30.467Z,100716.28
2022-12-15T19:43:00.389Z,100726.81
2022-12-15T19:45:30.200Z,100724.31
2022-12-15T19:47:58.469Z,100725.81
2022-12-15T19:50:31.177Z,100735.44
2022-12-15T19:53:01.598Z,100742.63
2022-12-15T19:55:33.689Z,100739.00
2022-12-15T19:58:02.032Z,100732.47
2022-12-15T20:00:29.962Z,100733.31
2022-12-15T20:02:58.061Z,100735.38
2022-12-15T20:05:27.547Z,100736.19
2022-12-15T20:07:56.283Z,100741.69
2022-12-15T20:10:32.187Z,100735.31
2022-12-15T20:13:01.332Z,100740.19
2022-12-15T20:15:29.549Z,100736.72
2022-12-15T20:17:57.953Z,100749.41
2022-12-15T20:20:29.939Z,100742.44
2022-12-15T20:23:01.561Z,100734.19
2022-12-15T20:25:33.616Z,100731.78
2022-12-15T20:28:02.409Z,100733.00
2022-12-15T20:30:32.854Z,100735.56
2022-12-15T20:33:01.685Z,100728.22
2022-12-15T20:35:33.364Z,100712.13
2022-12-15T20:38:04.388Z,100721.38
2022-12-15T20:40:32.944Z,100726.34
2022-12-15T20:43:00.882Z,100697.75
2022-12-15T20:45:28.852Z,100718.94
2022-12-15T20:47:57.265Z,100711.75
2022-12-15T20:50:28.999Z,100713.78
2022-12-15T20:53:00.973Z,100727.56
2022-12-15T20:55:29.038Z,100713.25
2022-12-15T20:57:57.007Z,100715.19
2022-12-15T21:00:24.941Z,100723.13
2022-12-15T21:02:55.283Z,100723.63
2022-12-15T21:05:26.636Z,100718.47
2022-12-15T21:07:54.574Z,100715.75
2022-12-15T21:10:23.918Z,100725.34
2022-12-15T21:12:52.576Z,100720.03
2022-12-15T21:15:22.870Z,100714.31
2022-12-15T21:18:16.970Z,100714.66
2022-12-15T21:20:42.997Z,100722.41
2022-12-15T21:23:24.019Z,100722.59
2022-12-15T21:25:53.714Z,100725.81
2022-12-15T21:28:22.787Z,100721.28
2022-12-15T21:30:51.762Z,100712.59
2022-12-15T21:33:20.680Z,100711.00
2022-12-15T21:35:49.177Z,100706.22
2022-12-15T21:38:28.471Z,100712.81
2022-12-15T21:41:00.061Z,100731.13
2022-12-15T21:43:30.546Z,100733.63
2022-12-15T21:45:58.854Z,100724.81
2022-12-15T21:48:44.040Z,100724.84
2022-12-15T21:51:15.260Z,100714.06
2022-12-15T21:53:44.507Z,100716.44
2022-12-15T21:56:17.613Z,100729.09
2022-12-15T21:58:46.066Z,100720.75
2022-12-15T22:01:15.934Z,100713.50
2022-12-15T22:03:48.020Z,100709.78
2022-12-15T22:06:19.903Z,100707.91
2022-12-15T22:08:48.183Z,100713.63
2022-12-15T22:11:26.242Z,100705.78
2022-12-15T22:13:56.167Z,100701.94
2022-12-15T22:16:24.796Z,100687.38
2022-12-15T22:18:55.584Z,100689.09
2022-12-15T22:21:24.273Z,100692.63
2022-12-15T22:23:52.771Z,100688.38
2022-12-15T22:26:23.968Z,100690.91
2022-12-15T22:28:52.696Z,100683.25
2022-12-15T22:31:22.886Z,100693.56
2022-12-15T22:33:50.915Z,100676.78
2022-12-15T22:36:18.948Z,100696.31
2022-12-15T22:38:47.043Z,100695.50
2022-12-15T22:41:19.520Z,100692.22
2022-12-15T22:43:51.974Z,100694.91
2022-12-15T22:46:22.315Z,100702.66
2022-12-15T22:48:52.373Z,100700.22
2022-12-15T22:51:20.872Z,100698.53
2022-12-15T22:53:48.780Z,100690.94
2022-12-15T22:56:25.162Z,100681.00
2022-12-15T22:58:59.780Z,100689.41
2022-12-15T23:01:28.541Z,100682.06
2022-12-15T23:03:57.028Z,100687.44
2022-12-15T23:06:27.203Z,100695.66
2022-12-15T23:08:56.309Z,100699.19
2022-12-15T23:11:38.946Z,100699.97
2022-12-15T23:14:10.356Z,100687.84
2022-12-15T23:16:37.937Z,100670.78
2022-12-15T23:19:08.360Z,100649.66
2022-12-15T23:21:37.279Z,100643.44
2022-12-15T23:24:05.648Z,100635.31
2022-12-15T23:26:34.719Z,100632.28
2022-12-15T23:29:02.636Z,100627.47
2022-12-15T23:31:32.118Z,100641.78
2022-12-15T23:34:00.164Z,100633.28
2022-12-15T23:36:28.244Z,100627.34
2022-12-15T23:38:57.947Z,100622.19
2022-12-15T23:41:25.999Z,100628.06
2022-12-15T23:43:53.880Z,100624.59
2022-12-15T23:46:21.845Z,100621.97
2022-12-15T23:48:51.940Z,100621.06
2022-12-15T23:51:21.560Z,100614.00
2022-12-15T23:53:49.917Z,100606.38
2022-12-15T23:56:21.958Z,100614.28
2022-12-15T23:58:55.772Z,100612.91
